sensor_id;sensor_type;location;lat;lon;timestamp;P1;durP1;ratioP1;P2;durP2;ratioP2
20122;SDS011;10222;50.848;4.336;2023-04-25T00:01:56;5.53;;;1.70;;
20122;SDS011;10222;50.848;4.336;2023-04-25T00:04:22;8.27;;;2.47;;
20122;SDS011;10222;50.848;4.336;2023-04-25T00:06:50;6.93;;;1.63;;
20122;SDS011;10222;50.848;4.336;2023-04-25T00:09:17;12.57;;;2.30;;
20122;SDS011;10222;50.848;4.336;2023-04-25T00:11:44;3.80;;;1.30;;
20122;SDS011;10222;50.848;4.336;2023-04-25T00:14:10;5.40;;;1.77;;
20122;SDS011;10222;50.848;4.336;2023-04-25T00:16:37;6.67;;;1.90;;
20122;SDS011;10222;50.848;4.336;2023-04-25T00:19:04;2.73;;;1.57;;
20122;SDS011;10222;50.848;4.336;2023-04-25T00:21:30;4.83;;;1.97;;
20122;SDS011;10222;50.848;4.336;2023-04-25T00:23:56;3.23;;;1.63;;
20122;SDS011;10222;50.848;4.336;2023-04-25T00:26:22;6.83;;;1.70;;
20122;SDS011;10222;50.848;4.336;2023-04-25T00:28:50;3.77;;;1.50;;
20122;SDS011;10222;50.848;4.336;2023-04-25T00:31:17;7.53;;;2.13;;
20122;SDS011;10222;50.848;4.336;2023-04-25T00:33:44;6.33;;;2.03;;
20122;SDS011;10222;50.848;4.336;2023-04-25T00:36:10;7.67;;;2.63;;
20122;SDS011;10222;50.848;4.336;2023-04-25T00:38:36;5.20;;;1.60;;
20122;SDS011;10222;50.848;4.336;2023-04-25T00:41:05;5.67;;;1.70;;
20122;SDS011;10222;50.848;4.336;2023-04-25T00:46:04;6.57;;;1.87;;
20122;SDS011;10222;50.848;4.336;2023-04-25T00:48:31;4.87;;;1.60;;
20122;SDS011;10222;50.848;4.336;2023-04-25T00:50:58;7.70;;;1.93;;
20122;SDS011;10222;50.848;4.336;2023-04-25T00:53:27;6.97;;;2.07;;
20122;SDS011;10222;50.848;4.336;2023-04-25T00:55:54;4.17;;;1.97;;
20122;SDS011;10222;50.848;4.336;2023-04-25T00:58:23;5.63;;;1.90;;
20122;SDS011;10222;50.848;4.336;2023-04-25T01:00:51;10.87;;;2.23;;
20122;SDS011;10222;50.848;4.336;2023-04-25T01:03:19;14.87;;;2.43;;
20122;SDS011;10222;50.848;4.336;2023-04-25T01:05:46;8.50;;;2.27;;
20122;SDS011;10222;50.848;4.336;2023-04-25T01:08:14;6.37;;;1.80;;
20122;SDS011;10222;50.848;4.336;2023-04-25T01:10:41;7.33;;;2.03;;
20122;SDS011;10222;50.848;4.336;2023-04-25T01:13:08;3.90;;;1.70;;
20122;SDS011;10222;50.848;4.336;2023-04-25T01:15:35;9.70;;;2.00;;
20122;SDS011;10222;50.848;4.336;2023-04-25T01:18:01;6.13;;;1.90;;
20122;SDS011;10222;50.848;4.336;2023-04-25T01:20:28;8.03;;;1.73;;
20122;SDS011;10222;50.848;4.336;2023-04-25T01:22:55;6.20;;;1.93;;
20122;SDS011;10222;50.848;4.336;2023-04-25T01:25:22;11.60;;;1.87;;
20122;SDS011;10222;50.848;4.336;2023-04-25T01:27:50;6.43;;;2.10;;
20122;SDS011;10222;50.848;4.336;2023-04-25T01:30:20;7.90;;;1.97;;
20122;SDS011;10222;50.848;4.336;2023-04-25T01:32:47;6.77;;;2.00;;
20122;SDS011;10222;50.848;4.336;2023-04-25T01:35:19;8.67;;;1.97;;
20122;SDS011;10222;50.848;4.336;2023-04-25T01:37:46;5.50;;;2.00;;
20122;SDS011;10222;50.848;4.336;2023-04-25T01:40:13;8.87;;;2.50;;
20122;SDS011;10222;50.848;4.336;2023-04-25T01:42:42;6.77;;;2.17;;
20122;SDS011;10222;50.848;4.336;2023-04-25T01:45:08;7.10;;;2.90;;
20122;SDS011;10222;50.848;4.336;2023-04-25T01:47:35;7.43;;;2.00;;
20122;SDS011;10222;50.848;4.336;2023-04-25T01:50:04;6.53;;;1.83;;
20122;SDS011;10222;50.848;4.336;2023-04-25T01:52:31;7.27;;;2.07;;
20122;SDS011;10222;50.848;4.336;2023-04-25T01:54:57;6.83;;;2.10;;
20122;SDS011;10222;50.848;4.336;2023-04-25T01:57:25;7.37;;;1.80;;
20122;SDS011;10222;50.848;4.336;2023-04-25T01:59:51;7.07;;;2.40;;
20122;SDS011;10222;50.848;4.336;2023-04-25T02:02:18;7.93;;;1.80;;
20122;SDS011;10222;50.848;4.336;2023-04-25T02:04:45;6.50;;;1.70;;
20122;SDS011;10222;50.848;4.336;2023-04-25T02:07:11;4.13;;;2.10;;
20122;SDS011;10222;50.848;4.336;2023-04-25T02:09:40;5.67;;;2.23;;
20122;SDS011;10222;50.848;4.336;2023-04-25T02:12:09;8.10;;;3.30;;
20122;SDS011;10222;50.848;4.336;2023-04-25T02:14:37;6.60;;;2.37;;
20122;SDS011;10222;50.848;4.336;2023-04-25T02:17:05;8.57;;;1.97;;
20122;SDS011;10222;50.848;4.336;2023-04-25T02:19:32;10.43;;;2.30;;
20122;SDS011;10222;50.848;4.336;2023-04-25T02:21:58;5.33;;;2.03;;
20122;SDS011;10222;50.848;4.336;2023-04-25T02:24:25;7.83;;;1.80;;
20122;SDS011;10222;50.848;4.336;2023-04-25T02:26:52;6.50;;;1.93;;
20122;SDS011;10222;50.848;4.336;2023-04-25T02:29:20;11.80;;;2.17;;
20122;SDS011;10222;50.848;4.336;2023-04-25T02:31:46;8.60;;;2.30;;
20122;SDS011;10222;50.848;4.336;2023-04-25T02:36:43;7.20;;;2.47;;
20122;SDS011;10222;50.848;4.336;2023-04-25T02:39:09;6.90;;;2.30;;
20122;SDS011;10222;50.848;4.336;2023-04-25T02:41:36;6.33;;;2.13;;
20122;SDS011;10222;50.848;4.336;2023-04-25T02:44:02;6.97;;;2.33;;
20122;SDS011;10222;50.848;4.336;2023-04-25T02:46:29;8.50;;;2.13;;
20122;SDS011;10222;50.848;4.336;2023-04-25T02:48:58;6.43;;;2.07;;
20122;SDS011;10222;50.848;4.336;2023-04-25T02:53:53;7.37;;;2.20;;
20122;SDS011;10222;50.848;4.336;2023-04-25T02:56:19;7.20;;;2.00;;
20122;SDS011;10222;50.848;4.336;2023-04-25T03:01:17;8.33;;;2.33;;
20122;SDS011;10222;50.848;4.336;2023-04-25T03:03:44;8.13;;;2.47;;
20122;SDS011;10222;50.848;4.336;2023-04-25T03:06:12;7.47;;;1.73;;
20122;SDS011;10222;50.848;4.336;2023-04-25T03:08:38;11.10;;;2.67;;
20122;SDS011;10222;50.848;4.336;2023-04-25T03:11:05;7.97;;;2.33;;
20122;SDS011;10222;50.848;4.336;2023-04-25T03:13:31;7.80;;;2.20;;
20122;SDS011;10222;50.848;4.336;2023-04-25T03:15:58;11.50;;;3.00;;
20122;SDS011;10222;50.848;4.336;2023-04-25T03:18:24;7.37;;;2.63;;
20122;SDS011;10222;50.848;4.336;2023-04-25T03:20:50;5.53;;;1.90;;
20122;SDS011;10222;50.848;4.336;2023-04-25T03:23:18;10.57;;;2.33;;
20122;SDS011;10222;50.848;4.336;2023-04-25T03:25:46;9.03;;;1.83;;
20122;SDS011;10222;50.848;4.336;2023-04-25T03:28:12;9.60;;;2.20;;
20122;SDS011;10222;50.848;4.336;2023-04-25T03:30:39;5.90;;;2.23;;
20122;SDS011;10222;50.848;4.336;2023-04-25T03:33:06;6.03;;;1.60;;
20122;SDS011;10222;50.848;4.336;2023-04-25T03:35:33;6.43;;;3.43;;
20122;SDS011;10222;50.848;4.336;2023-04-25T03:37:59;8.97;;;2.13;;
20122;SDS011;10222;50.848;4.336;2023-04-25T03:40:25;5.50;;;2.13;;
20122;SDS011;10222;50.848;4.336;2023-04-25T03:42:51;13.20;;;2.20;;
20122;SDS011;10222;50.848;4.336;2023-04-25T03:45:17;8.43;;;2.10;;
20122;SDS011;10222;50.848;4.336;2023-04-25T03:47:43;9.07;;;2.00;;
20122;SDS011;10222;50.848;4.336;2023-04-25T03:50:10;4.63;;;1.90;;
20122;SDS011;10222;50.848;4.336;2023-04-25T03:52:36;4.47;;;1.83;;
20122;SDS011;10222;50.848;4.336;2023-04-25T03:55:03;6.77;;;2.33;;
20122;SDS011;10222;50.848;4.336;2023-04-25T03:57:29;4.73;;;1.83;;
20122;SDS011;10222;50.848;4.336;2023-04-25T03:59:55;4.20;;;1.50;;
20122;SDS011;10222;50.848;4.336;2023-04-25T04:02:21;8.73;;;2.10;;
20122;SDS011;10222;50.848;4.336;2023-04-25T04:04:47;5.43;;;1.80;;
20122;SDS011;10222;50.848;4.336;2023-04-25T04:07:14;6.00;;;2.03;;
20122;SDS011;10222;50.848;4.336;2023-04-25T04:09:40;5.57;;;1.57;;
20122;SDS011;10222;50.848;4.336;2023-04-25T04:12:06;6.93;;;2.30;;
20122;SDS011;10222;50.848;4.336;2023-04-25T04:14:32;6.60;;;1.60;;
20122;SDS011;10222;50.848;4.336;2023-04-25T04:16:59;7.73;;;1.67;;
20122;SDS011;10222;50.848;4.336;2023-04-25T04:19:26;4.33;;;1.47;;
20122;SDS011;10222;50.848;4.336;2023-04-25T04:21:52;6.23;;;2.30;;
20122;SDS011;10222;50.848;4.336;2023-04-25T04:24:19;4.80;;;1.90;;
20122;SDS011;10222;50.848;4.336;2023-04-25T04:26:45;4.63;;;2.13;;
20122;SDS011;10222;50.848;4.336;2023-04-25T04:29:12;4.20;;;1.20;;
20122;SDS011;10222;50.848;4.336;2023-04-25T04:31:46;6.10;;;1.73;;
20122;SDS011;10222;50.848;4.336;2023-04-25T04:34:12;2.97;;;1.63;;
20122;SDS011;10222;50.848;4.336;2023-04-25T04:36:40;4.90;;;2.03;;
20122;SDS011;10222;50.848;4.336;2023-04-25T04:39:07;5.63;;;1.90;;
20122;SDS011;10222;50.848;4.336;2023-04-25T04:41:34;4.80;;;1.77;;
20122;SDS011;10222;50.848;4.336;2023-04-25T04:44:00;13.50;;;1.90;;
20122;SDS011;10222;50.848;4.336;2023-04-25T04:46:28;8.80;;;1.80;;
20122;SDS011;10222;50.848;4.336;2023-04-25T04:48:56;6.97;;;2.20;;
20122;SDS011;10222;50.848;4.336;2023-04-25T04:51:22;4.57;;;1.67;;
20122;SDS011;10222;50.848;4.336;2023-04-25T04:53:48;4.43;;;2.13;;
20122;SDS011;10222;50.848;4.336;2023-04-25T04:56:16;9.97;;;2.37;;
20122;SDS011;10222;50.848;4.336;2023-04-25T04:58:42;5.97;;;2.30;;
20122;SDS011;10222;50.848;4.336;2023-04-25T05:01:09;6.63;;;1.80;;
20122;SDS011;10222;50.848;4.336;2023-04-25T05:03:36;8.40;;;2.13;;
20122;SDS011;10222;50.848;4.336;2023-04-25T05:06:03;9.90;;;2.50;;
20122;SDS011;10222;50.848;4.336;2023-04-25T05:08:30;6.63;;;2.07;;
20122;SDS011;10222;50.848;4.336;2023-04-25T05:10:56;6.13;;;2.23;;
20122;SDS011;10222;50.848;4.336;2023-04-25T05:13:22;7.77;;;2.10;;
20122;SDS011;10222;50.848;4.336;2023-04-25T05:15:48;4.73;;;1.30;;
20122;SDS011;10222;50.848;4.336;2023-04-25T05:18:14;10.17;;;2.13;;
20122;SDS011;10222;50.848;4.336;2023-04-25T05:20:41;4.47;;;2.33;;
20122;SDS011;10222;50.848;4.336;2023-04-25T05:23:07;4.87;;;1.80;;
20122;SDS011;10222;50.848;4.336;2023-04-25T05:25:33;5.97;;;2.23;;
20122;SDS011;10222;50.848;4.336;2023-04-25T05:27:59;5.43;;;2.27;;
20122;SDS011;10222;50.848;4.336;2023-04-25T05:30:25;5.03;;;1.90;;
20122;SDS011;10222;50.848;4.336;2023-04-25T05:32:51;6.13;;;1.77;;
20122;SDS011;10222;50.848;4.336;2023-04-25T05:35:17;10.17;;;2.30;;
20122;SDS011;10222;50.848;4.336;2023-04-25T05:37:44;5.73;;;1.70;;
20122;SDS011;10222;50.848;4.336;2023-04-25T05:40:10;8.30;;;2.07;;
20122;SDS011;10222;50.848;4.336;2023-04-25T05:42:36;12.53;;;2.97;;
20122;SDS011;10222;50.848;4.336;2023-04-25T05:45:02;5.60;;;2.07;;
20122;SDS011;10222;50.848;4.336;2023-04-25T05:47:29;5.37;;;2.20;;
20122;SDS011;10222;50.848;4.336;2023-04-25T05:49:55;8.10;;;2.53;;
20122;SDS011;10222;50.848;4.336;2023-04-25T05:52:21;7.90;;;2.93;;
20122;SDS011;10222;50.848;4.336;2023-04-25T05:54:48;6.07;;;2.17;;
20122;SDS011;10222;50.848;4.336;2023-04-25T05:57:21;6.77;;;1.90;;
20122;SDS011;10222;50.848;4.336;2023-04-25T05:59:47;5.10;;;2.27;;
20122;SDS011;10222;50.848;4.336;2023-04-25T06:02:13;3.47;;;2.33;;
20122;SDS011;10222;50.848;4.336;2023-04-25T06:04:40;15.17;;;2.80;;
20122;SDS011;10222;50.848;4.336;2023-04-25T06:07:06;5.93;;;1.87;;
20122;SDS011;10222;50.848;4.336;2023-04-25T06:09:32;4.20;;;1.60;;
20122;SDS011;10222;50.848;4.336;2023-04-25T06:11:58;4.40;;;2.23;;
20122;SDS011;10222;50.848;4.336;2023-04-25T06:14:24;8.80;;;2.60;;
20122;SDS011;10222;50.848;4.336;2023-04-25T06:16:53;10.40;;;2.67;;
20122;SDS011;10222;50.848;4.336;2023-04-25T06:19:19;3.47;;;2.10;;
20122;SDS011;10222;50.848;4.336;2023-04-25T06:21:46;9.17;;;2.70;;
20122;SDS011;10222;50.848;4.336;2023-04-25T06:24:12;4.40;;;2.20;;
20122;SDS011;10222;50.848;4.336;2023-04-25T06:26:38;5.47;;;2.80;;
20122;SDS011;10222;50.848;4.336;2023-04-25T06:29:04;6.47;;;1.80;;
20122;SDS011;10222;50.848;4.336;2023-04-25T06:31:31;7.40;;;1.90;;
20122;SDS011;10222;50.848;4.336;2023-04-25T06:33:58;10.23;;;2.00;;
20122;SDS011;10222;50.848;4.336;2023-04-25T06:36:24;3.60;;;1.60;;
20122;SDS011;10222;50.848;4.336;2023-04-25T06:38:52;5.77;;;1.73;;
20122;SDS011;10222;50.848;4.336;2023-04-25T06:41:19;5.30;;;1.80;;
20122;SDS011;10222;50.848;4.336;2023-04-25T06:43:45;4.27;;;1.47;;
20122;SDS011;10222;50.848;4.336;2023-04-25T06:46:12;5.27;;;1.77;;
20122;SDS011;10222;50.848;4.336;2023-04-25T06:48:39;3.57;;;1.77;;
20122;SDS011;10222;50.848;4.336;2023-04-25T06:51:05;6.67;;;1.67;;
20122;SDS011;10222;50.848;4.336;2023-04-25T06:53:32;3.33;;;1.30;;
20122;SDS011;10222;50.848;4.336;2023-04-25T06:55:58;6.30;;;1.73;;
20122;SDS011;10222;50.848;4.336;2023-04-25T06:58:25;4.27;;;1.40;;
20122;SDS011;10222;50.848;4.336;2023-04-25T07:00:51;3.73;;;1.47;;
20122;SDS011;10222;50.848;4.336;2023-04-25T07:03:17;4.90;;;1.87;;
20122;SDS011;10222;50.848;4.336;2023-04-25T07:05:43;4.63;;;1.70;;
20122;SDS011;10222;50.848;4.336;2023-04-25T07:08:16;6.57;;;1.33;;
20122;SDS011;10222;50.848;4.336;2023-04-25T07:10:42;5.83;;;1.40;;
20122;SDS011;10222;50.848;4.336;2023-04-25T07:13:11;4.83;;;1.77;;
20122;SDS011;10222;50.848;4.336;2023-04-25T07:15:37;4.37;;;1.87;;
20122;SDS011;10222;50.848;4.336;2023-04-25T07:18:03;6.53;;;1.97;;
20122;SDS011;10222;50.848;4.336;2023-04-25T07:20:29;3.93;;;1.77;;
20122;SDS011;10222;50.848;4.336;2023-04-25T07:22:56;5.47;;;1.17;;
20122;SDS011;10222;50.848;4.336;2023-04-25T07:25:22;3.37;;;1.33;;
20122;SDS011;10222;50.848;4.336;2023-04-25T07:27:48;6.60;;;1.63;;
20122;SDS011;10222;50.848;4.336;2023-04-25T07:30:14;5.57;;;1.40;;
20122;SDS011;10222;50.848;4.336;2023-04-25T07:32:40;6.07;;;1.70;;
20122;SDS011;10222;50.848;4.336;2023-04-25T07:35:06;3.03;;;1.37;;
20122;SDS011;10222;50.848;4.336;2023-04-25T07:37:36;4.17;;;1.37;;
20122;SDS011;10222;50.848;4.336;2023-04-25T07:40:02;6.43;;;1.57;;
20122;SDS011;10222;50.848;4.336;2023-04-25T07:42:29;5.17;;;1.13;;
20122;SDS011;10222;50.848;4.336;2023-04-25T07:44:55;4.83;;;1.07;;
20122;SDS011;10222;50.848;4.336;2023-04-25T07:47:21;6.37;;;1.30;;
20122;SDS011;10222;50.848;4.336;2023-04-25T07:49:47;7.23;;;2.00;;
20122;SDS011;10222;50.848;4.336;2023-04-25T07:52:13;4.47;;;1.00;;
20122;SDS011;10222;50.848;4.336;2023-04-25T07:54:39;5.13;;;1.27;;
20122;SDS011;10222;50.848;4.336;2023-04-25T07:57:06;7.33;;;1.73;;
20122;SDS011;10222;50.848;4.336;2023-04-25T07:59:33;1.67;;;1.07;;
20122;SDS011;10222;50.848;4.336;2023-04-25T08:02:00;5.63;;;1.37;;
20122;SDS011;10222;50.848;4.336;2023-04-25T08:04:26;2.93;;;1.33;;
20122;SDS011;10222;50.848;4.336;2023-04-25T08:06:52;0.90;;;0.80;;
20122;SDS011;10222;50.848;4.336;2023-04-25T08:09:20;4.67;;;1.20;;
20122;SDS011;10222;50.848;4.336;2023-04-25T08:11:46;5.70;;;1.10;;
20122;SDS011;10222;50.848;4.336;2023-04-25T08:14:12;3.83;;;1.60;;
20122;SDS011;10222;50.848;4.336;2023-04-25T08:16:39;8.77;;;1.73;;
20122;SDS011;10222;50.848;4.336;2023-04-25T08:19:05;5.60;;;1.83;;
20122;SDS011;10222;50.848;4.336;2023-04-25T08:21:31;4.93;;;1.20;;
20122;SDS011;10222;50.848;4.336;2023-04-25T08:23:57;3.87;;;1.50;;
20122;SDS011;10222;50.848;4.336;2023-04-25T08:26:24;7.67;;;1.73;;
20122;SDS011;10222;50.848;4.336;2023-04-25T08:28:50;1.97;;;1.23;;
20122;SDS011;10222;50.848;4.336;2023-04-25T08:31:16;3.60;;;1.27;;
20122;SDS011;10222;50.848;4.336;2023-04-25T08:33:43;2.47;;;0.90;;
20122;SDS011;10222;50.848;4.336;2023-04-25T08:36:10;3.73;;;1.13;;
20122;SDS011;10222;50.848;4.336;2023-04-25T08:38:36;2.63;;;1.27;;
20122;SDS011;10222;50.848;4.336;2023-04-25T08:41:02;2.97;;;1.20;;
20122;SDS011;10222;50.848;4.336;2023-04-25T08:43:29;4.77;;;1.33;;
20122;SDS011;10222;50.848;4.336;2023-04-25T08:45:59;6.87;;;1.80;;
20122;SDS011;10222;50.848;4.336;2023-04-25T08:48:26;1.33;;;1.10;;
20122;SDS011;10222;50.848;4.336;2023-04-25T08:50:55;2.53;;;1.20;;
20122;SDS011;10222;50.848;4.336;2023-04-25T08:53:25;8.40;;;1.90;;
20122;SDS011;10222;50.848;4.336;2023-04-25T08:55:52;5.97;;;1.60;;
20122;SDS011;10222;50.848;4.336;2023-04-25T08:58:19;3.00;;;0.93;;
20122;SDS011;10222;50.848;4.336;2023-04-25T09:00:46;3.60;;;1.47;;
20122;SDS011;10222;50.848;4.336;2023-04-25T09:03:12;6.33;;;1.37;;
20122;SDS011;10222;50.848;4.336;2023-04-25T09:05:40;3.60;;;1.00;;
20122;SDS011;10222;50.848;4.336;2023-04-25T09:08:06;4.87;;;1.17;;
20122;SDS011;10222;50.848;4.336;2023-04-25T09:10:33;3.17;;;1.03;;
20122;SDS011;10222;50.848;4.336;2023-04-25T09:13:09;4.70;;;1.30;;
20122;SDS011;10222;50.848;4.336;2023-04-25T09:15:55;3.47;;;1.20;;
20122;SDS011;10222;50.848;4.336;2023-04-25T09:18:27;2.33;;;0.90;;
20122;SDS011;10222;50.848;4.336;2023-04-25T09:20:54;5.40;;;0.87;;
20122;SDS011;10222;50.848;4.336;2023-04-25T09:23:21;3.47;;;0.97;;
20122;SDS011;10222;50.848;4.336;2023-04-25T09:25:48;2.93;;;0.77;;
20122;SDS011;10222;50.848;4.336;2023-04-25T09:28:14;2.90;;;1.30;;
20122;SDS011;10222;50.848;4.336;2023-04-25T09:30:41;5.87;;;1.23;;
20122;SDS011;10222;50.848;4.336;2023-04-25T09:33:09;3.90;;;0.93;;
20122;SDS011;10222;50.848;4.336;2023-04-25T09:35:36;2.30;;;0.80;;
20122;SDS011;10222;50.848;4.336;2023-04-25T09:38:21;2.47;;;0.90;;
20122;SDS011;10222;50.848;4.336;2023-04-25T09:40:48;4.67;;;1.27;;
20122;SDS011;10222;50.848;4.336;2023-04-25T09:43:20;5.00;;;1.43;;
20122;SDS011;10222;50.848;4.336;2023-04-25T09:45:47;3.63;;;0.90;;
20122;SDS011;10222;50.848;4.336;2023-04-25T09:48:22;2.53;;;0.90;;
20122;SDS011;10222;50.848;4.336;2023-04-25T09:51:07;2.97;;;0.90;;
20122;SDS011;10222;50.848;4.336;2023-04-25T09:53:38;1.80;;;0.90;;
20122;SDS011;10222;50.848;4.336;2023-04-25T09:56:05;7.87;;;1.87;;
20122;SDS011;10222;50.848;4.336;2023-04-25T09:58:34;2.47;;;1.23;;
20122;SDS011;10222;50.848;4.336;2023-04-25T10:01:04;3.47;;;1.10;;
20122;SDS011;10222;50.848;4.336;2023-04-25T10:03:31;4.07;;;0.90;;
20122;SDS011;10222;50.848;4.336;2023-04-25T10:06:01;9.53;;;1.10;;
20122;SDS011;10222;50.848;4.336;2023-04-25T10:08:32;7.27;;;1.00;;
20122;SDS011;10222;50.848;4.336;2023-04-25T10:11:02;3.00;;;1.37;;
20122;SDS011;10222;50.848;4.336;2023-04-25T10:13:29;4.70;;;0.90;;
20122;SDS011;10222;50.848;4.336;2023-04-25T10:16:01;2.67;;;0.83;;
20122;SDS011;10222;50.848;4.336;2023-04-25T10:18:27;2.97;;;1.00;;
20122;SDS011;10222;50.848;4.336;2023-04-25T10:20:57;4.60;;;1.10;;
20122;SDS011;10222;50.848;4.336;2023-04-25T10:23:25;2.03;;;0.93;;
20122;SDS011;10222;50.848;4.336;2023-04-25T10:25:52;2.57;;;0.93;;
20122;SDS011;10222;50.848;4.336;2023-04-25T10:28:19;1.93;;;0.90;;
20122;SDS011;10222;50.848;4.336;2023-04-25T10:31:03;1.87;;;0.70;;
20122;SDS011;10222;50.848;4.336;2023-04-25T10:33:38;1.30;;;0.70;;
20122;SDS011;10222;50.848;4.336;2023-04-25T10:36:11;1.33;;;0.67;;
20122;SDS011;10222;50.848;4.336;2023-04-25T10:38:37;1.10;;;0.80;;
20122;SDS011;10222;50.848;4.336;2023-04-25T10:41:07;5.23;;;0.77;;
20122;SDS011;10222;50.848;4.336;2023-04-25T10:43:58;1.10;;;0.57;;
20122;SDS011;10222;50.848;4.336;2023-04-25T10:46:26;1.90;;;0.50;;
20122;SDS011;10222;50.848;4.336;2023-04-25T10:48:58;2.57;;;0.90;;
20122;SDS011;10222;50.848;4.336;2023-04-25T10:51:26;2.30;;;0.70;;
20122;SDS011;10222;50.848;4.336;2023-04-25T10:53:58;3.67;;;0.87;;
20122;SDS011;10222;50.848;4.336;2023-04-25T10:59:03;2.33;;;0.80;;
20122;SDS011;10222;50.848;4.336;2023-04-25T11:01:35;0.73;;;0.60;;
20122;SDS011;10222;50.848;4.336;2023-04-25T11:04:01;3.67;;;0.60;;
20122;SDS011;10222;50.848;4.336;2023-04-25T11:08:53;4.20;;;1.03;;
20122;SDS011;10222;50.848;4.336;2023-04-25T11:11:21;2.00;;;0.90;;
20122;SDS011;10222;50.848;4.336;2023-04-25T11:13:47;2.53;;;0.70;;
20122;SDS011;10222;50.848;4.336;2023-04-25T11:16:14;4.97;;;0.93;;
20122;SDS011;10222;50.848;4.336;2023-04-25T11:18:41;2.77;;;0.80;;
20122;SDS011;10222;50.848;4.336;2023-04-25T11:21:07;2.80;;;0.77;;
20122;SDS011;10222;50.848;4.336;2023-04-25T11:23:33;4.13;;;1.10;;
20122;SDS011;10222;50.848;4.336;2023-04-25T11:26:01;0.97;;;0.60;;
20122;SDS011;10222;50.848;4.336;2023-04-25T11:28:28;2.60;;;0.73;;
20122;SDS011;10222;50.848;4.336;2023-04-25T11:30:54;2.83;;;0.67;;
20122;SDS011;10222;50.848;4.336;2023-04-25T11:33:24;3.53;;;0.70;;
20122;SDS011;10222;50.848;4.336;2023-04-25T11:35:54;1.83;;;0.53;;
20122;SDS011;10222;50.848;4.336;2023-04-25T11:38:22;4.07;;;0.70;;
20122;SDS011;10222;50.848;4.336;2023-04-25T11:40:52;6.50;;;1.00;;
20122;SDS011;10222;50.848;4.336;2023-04-25T11:43:21;3.03;;;1.50;;
20122;SDS011;10222;50.848;4.336;2023-04-25T11:45:48;3.13;;;0.70;;
20122;SDS011;10222;50.848;4.336;2023-04-25T11:48:15;1.40;;;0.60;;
20122;SDS011;10222;50.848;4.336;2023-04-25T11:50:42;5.60;;;1.07;;
20122;SDS011;10222;50.848;4.336;2023-04-25T11:53:08;2.30;;;0.70;;
20122;SDS011;10222;50.848;4.336;2023-04-25T11:55:35;1.40;;;0.60;;
20122;SDS011;10222;50.848;4.336;2023-04-25T11:58:01;1.87;;;0.63;;
20122;SDS011;10222;50.848;4.336;2023-04-25T12:00:28;1.80;;;1.07;;
20122;SDS011;10222;50.848;4.336;2023-04-25T12:02:55;2.23;;;0.80;;
20122;SDS011;10222;50.848;4.336;2023-04-25T12:05:26;1.10;;;0.40;;
20122;SDS011;10222;50.848;4.336;2023-04-25T12:07:52;3.27;;;0.70;;
20122;SDS011;10222;50.848;4.336;2023-04-25T12:10:20;1.30;;;0.60;;
20122;SDS011;10222;50.848;4.336;2023-04-25T12:12:46;2.60;;;0.80;;
20122;SDS011;10222;50.848;4.336;2023-04-25T12:15:23;1.17;;;0.80;;
20122;SDS011;10222;50.848;4.336;2023-04-25T12:17:50;1.53;;;0.90;;
20122;SDS011;10222;50.848;4.336;2023-04-25T12:20:17;3.03;;;1.00;;
20122;SDS011;10222;50.848;4.336;2023-04-25T12:22:45;2.00;;;0.73;;
20122;SDS011;10222;50.848;4.336;2023-04-25T12:25:12;3.23;;;0.90;;
20122;SDS011;10222;50.848;4.336;2023-04-25T12:27:39;2.37;;;0.60;;
20122;SDS011;10222;50.848;4.336;2023-04-25T12:30:09;1.40;;;0.67;;
20122;SDS011;10222;50.848;4.336;2023-04-25T12:32:36;2.53;;;0.53;;
20122;SDS011;10222;50.848;4.336;2023-04-25T12:35:03;1.73;;;0.60;;
20122;SDS011;10222;50.848;4.336;2023-04-25T12:37:29;1.20;;;0.50;;
20122;SDS011;10222;50.848;4.336;2023-04-25T12:39:55;0.60;;;0.47;;
20122;SDS011;10222;50.848;4.336;2023-04-25T12:42:21;1.03;;;0.57;;
20122;SDS011;10222;50.848;4.336;2023-04-25T12:44:48;2.97;;;1.13;;
20122;SDS011;10222;50.848;4.336;2023-04-25T12:47:14;3.50;;;0.83;;
20122;SDS011;10222;50.848;4.336;2023-04-25T12:49:40;3.83;;;0.90;;
20122;SDS011;10222;50.848;4.336;2023-04-25T12:52:06;4.00;;;1.03;;
20122;SDS011;10222;50.848;4.336;2023-04-25T12:54:32;2.90;;;0.60;;
20122;SDS011;10222;50.848;4.336;2023-04-25T12:56:59;1.50;;;0.50;;
20122;SDS011;10222;50.848;4.336;2023-04-25T12:59:28;2.77;;;0.77;;
20122;SDS011;10222;50.848;4.336;2023-04-25T13:01:54;1.07;;;0.30;;
20122;SDS011;10222;50.848;4.336;2023-04-25T13:04:20;3.03;;;0.53;;
20122;SDS011;10222;50.848;4.336;2023-04-25T13:06:47;3.13;;;0.80;;
20122;SDS011;10222;50.848;4.336;2023-04-25T13:09:13;0.70;;;0.70;;
20122;SDS011;10222;50.848;4.336;2023-04-25T13:11:40;2.23;;;0.60;;
20122;SDS011;10222;50.848;4.336;2023-04-25T13:14:06;1.37;;;0.73;;
20122;SDS011;10222;50.848;4.336;2023-04-25T13:16:32;2.10;;;0.70;;
20122;SDS011;10222;50.848;4.336;2023-04-25T13:18:58;1.27;;;0.70;;
20122;SDS011;10222;50.848;4.336;2023-04-25T13:21:25;2.50;;;0.83;;
20122;SDS011;10222;50.848;4.336;2023-04-25T13:23:52;2.90;;;0.90;;
20122;SDS011;10222;50.848;4.336;2023-04-25T13:26:18;1.13;;;0.60;;
20122;SDS011;10222;50.848;4.336;2023-04-25T13:28:44;1.63;;;0.67;;
20122;SDS011;10222;50.848;4.336;2023-04-25T13:31:10;2.87;;;0.60;;
20122;SDS011;10222;50.848;4.336;2023-04-25T13:33:36;2.23;;;0.60;;
20122;SDS011;10222;50.848;4.336;2023-04-25T13:36:02;3.20;;;0.60;;
20122;SDS011;10222;50.848;4.336;2023-04-25T13:38:28;4.23;;;0.90;;
20122;SDS011;10222;50.848;4.336;2023-04-25T13:40:54;1.53;;;0.73;;
20122;SDS011;10222;50.848;4.336;2023-04-25T13:43:21;2.30;;;0.40;;
20122;SDS011;10222;50.848;4.336;2023-04-25T13:45:48;3.13;;;0.70;;
20122;SDS011;10222;50.848;4.336;2023-04-25T13:48:14;0.87;;;0.50;;
20122;SDS011;10222;50.848;4.336;2023-04-25T13:50:40;1.93;;;0.60;;
20122;SDS011;10222;50.848;4.336;2023-04-25T13:53:06;2.00;;;0.70;;
20122;SDS011;10222;50.848;4.336;2023-04-25T13:55:33;0.93;;;0.70;;
20122;SDS011;10222;50.848;4.336;2023-04-25T13:58:00;2.40;;;0.50;;
20122;SDS011;10222;50.848;4.336;2023-04-25T14:00:32;3.47;;;1.00;;
20122;SDS011;10222;50.848;4.336;2023-04-25T14:02:58;1.93;;;0.67;;
20122;SDS011;10222;50.848;4.336;2023-04-25T14:05:24;2.27;;;0.70;;
20122;SDS011;10222;50.848;4.336;2023-04-25T14:07:50;2.30;;;0.70;;
20122;SDS011;10222;50.848;4.336;2023-04-25T14:10:16;4.13;;;0.67;;
20122;SDS011;10222;50.848;4.336;2023-04-25T14:12:42;2.40;;;0.40;;
20122;SDS011;10222;50.848;4.336;2023-04-25T14:15:08;1.60;;;0.60;;
20122;SDS011;10222;50.848;4.336;2023-04-25T14:17:35;2.37;;;0.50;;
20122;SDS011;10222;50.848;4.336;2023-04-25T14:20:02;1.20;;;0.63;;
20122;SDS011;10222;50.848;4.336;2023-04-25T14:22:30;4.73;;;1.03;;
20122;SDS011;10222;50.848;4.336;2023-04-25T14:24:56;1.33;;;0.50;;
20122;SDS011;10222;50.848;4.336;2023-04-25T14:27:23;1.93;;;0.70;;
20122;SDS011;10222;50.848;4.336;2023-04-25T14:29:49;3.80;;;0.87;;
20122;SDS011;10222;50.848;4.336;2023-04-25T14:32:15;1.70;;;0.70;;
20122;SDS011;10222;50.848;4.336;2023-04-25T14:34:41;2.03;;;1.00;;
20122;SDS011;10222;50.848;4.336;2023-04-25T14:37:07;3.73;;;0.77;;
20122;SDS011;10222;50.848;4.336;2023-04-25T14:39:33;1.27;;;0.60;;
20122;SDS011;10222;50.848;4.336;2023-04-25T14:41:59;0.60;;;0.40;;
20122;SDS011;10222;50.848;4.336;2023-04-25T14:44:25;0.97;;;0.50;;
20122;SDS011;10222;50.848;4.336;2023-04-25T14:46:52;4.60;;;0.70;;
20122;SDS011;10222;50.848;4.336;2023-04-25T14:49:18;1.13;;;0.60;;
20122;SDS011;10222;50.848;4.336;2023-04-25T14:51:45;1.53;;;0.40;;
20122;SDS011;10222;50.848;4.336;2023-04-25T14:54:11;3.33;;;0.73;;
20122;SDS011;10222;50.848;4.336;2023-04-25T14:56:37;2.37;;;0.60;;
20122;SDS011;10222;50.848;4.336;2023-04-25T14:59:03;2.00;;;0.60;;
20122;SDS011;10222;50.848;4.336;2023-04-25T15:01:29;2.60;;;0.47;;
20122;SDS011;10222;50.848;4.336;2023-04-25T15:03:55;4.07;;;0.70;;